メインページ
METAR-TAF:

METAR-TAF

空港 :

Guaymas, メキシコ

緯度: 27-58N, 経度: 110-56W, 海抜: 27m

現時点の気象観測

当レポートは8時間8分前の01:42(UTC)に作成
無風
気温 22°C
湿度 53%
気圧 1014 hPa
視程: 8.0km
高度22000ftの雲はほとんどない

METAR: MMGM 160142Z 00000KT 5SM FEW220 22/12 A2994 RMK 8/001

時間: 02:50 (09:50 UTC)

予報

当レポートは5時間6分前の04:44(UTC)に作成
予報は16日の 06時(UTC)から 17日の 06時(UTC)まで有効
の風 kt
視程: 10km
高度25000ftの千切れ雲あり
16日の 1800時(UTC)から
南西の風 10kt
視程: 10km
高度25000ftの千切れ雲あり
17日の 0200時(UTC)から
南西の風 5kt
視程: 10km
高度25000ftの千切れ雲あり

TAF: MMGM 160444Z 1606/1706 00000KT P6SM BKN250 FM161800 22010KT P6SM BKN250 FM170200 23005KT P6SM BKN250

4,000以上の空港の気象観測と天気予報(METAR報とTAF報)

利用可能な観測所は地図上に黄色い丸と赤い丸で示す。

丸の上にカーソルを重ねると観測所名を参照できる。

次にクリックすると気象観測と天気予報を参照できる。

マップの切り替え:黒色「×」印の緑ボタンをクリックして拡大、「-」印の緑ボタンをクリックして縮小、緑色の三角印をクリックして隣りの地図に切り替え


METAR-TAF: